createdAt,value
2023-04-27T00:00:14.585Z,68.40
2023-04-27T00:03:16.797Z,66.20
2023-04-27T00:06:18.929Z,67.40
2023-04-27T00:09:20.954Z,67.40
2023-04-27T00:12:22.996Z,66.70
2023-04-27T00:15:25.175Z,68.00
2023-04-27T00:18:27.219Z,66.90
2023-04-27T00:21:29.238Z,68.10
2023-04-27T00:24:31.787Z,67.60
2023-04-27T00:27:33.665Z,68.80
2023-04-27T00:30:35.895Z,68.60
2023-04-27T00:33:38.012Z,68.50
2023-04-27T00:36:40.042Z,68.50
2023-04-27T00:39:42.033Z,68.90
2023-04-27T00:42:44.076Z,69.80
2023-04-27T00:45:46.690Z,69.90
2023-04-27T00:48:48.839Z,69.90
2023-04-27T00:51:50.890Z,70.30
2023-04-27T00:54:53.116Z,70.90
2023-04-27T00:57:56.017Z,70.00
2023-04-27T01:00:58.589Z,70.60
2023-04-27T01:04:00.775Z,71.30
2023-04-27T01:07:04.720Z,70.60
2023-04-27T01:10:08.262Z,71.10
2023-04-27T01:13:10.888Z,71.60
2023-04-27T01:16:13.439Z,71.30
2023-04-27T01:19:15.746Z,70.40
2023-04-27T01:22:18.555Z,70.90
2023-04-27T01:25:20.615Z,71.20
2023-04-27T01:28:22.583Z,71.50
2023-04-27T01:31:27.212Z,71.80
2023-04-27T01:34:31.814Z,71.60
2023-04-27T01:37:33.982Z,71.70
2023-04-27T01:40:36.052Z,72.60
2023-04-27T01:43:37.980Z,73.20
2023-04-27T01:46:40.208Z,72.50
2023-04-27T01:49:42.317Z,72.00
2023-04-27T01:52:46.634Z,71.70
2023-04-27T01:55:48.719Z,71.30
2023-04-27T01:58:52.761Z,71.30
2023-04-27T02:01:55.406Z,70.80
2023-04-27T02:04:58.166Z,70.50
2023-04-27T02:08:01.312Z,71.20
2023-04-27T02:11:03.865Z,70.70
2023-04-27T02:14:05.849Z,70.50
2023-04-27T02:17:08.004Z,70.40
2023-04-27T02:20:10.433Z,70.50
2023-04-27T02:23:13.777Z,70.80
2023-04-27T02:26:19.431Z,70.10
2023-04-27T02:29:21.835Z,69.60
2023-04-27T02:32:24.129Z,70.30
2023-04-27T02:35:27.381Z,69.20
2023-04-27T02:38:35.159Z,69.90
2023-04-27T02:41:38.176Z,69.30
2023-04-27T02:44:40.200Z,69.20
2023-04-27T02:47:44.429Z,69.60
2023-04-27T02:50:48.880Z,69.50
2023-04-27T02:53:52.703Z,69.90
2023-04-27T02:56:57.006Z,69.50
2023-04-27T02:59:59.054Z,69.70
2023-04-27T03:03:01.153Z,69.40
2023-04-27T03:06:03.404Z,70.10
2023-04-27T03:09:05.673Z,70.10
2023-04-27T03:12:07.736Z,69.60
2023-04-27T03:15:10.148Z,70.70
2023-04-27T03:18:12.246Z,70.00
2023-04-27T03:21:16.132Z,68.70
2023-04-27T03:24:18.191Z,69.00
2023-04-27T03:27:20.151Z,68.80
2023-04-27T03:30:22.490Z,68.50
2023-04-27T03:33:24.474Z,69.30
2023-04-27T03:36:26.569Z,68.90
2023-04-27T03:39:30.831Z,68.70
2023-04-27T03:42:32.812Z,69.00
2023-04-27T03:45:34.920Z,68.50
2023-04-27T03:48:37.183Z,66.30
2023-04-27T03:51:39.146Z,66.80
2023-04-27T03:54:41.173Z,66.90
2023-04-27T03:57:43.146Z,66.20
2023-04-27T04:00:45.153Z,66.10
2023-04-27T04:03:47.295Z,66.10
2023-04-27T04:06:49.541Z,67.50
2023-04-27T04:09:52.127Z,65.60
2023-04-27T04:12:54.136Z,66.90
2023-04-27T04:16:03.085Z,68.00
2023-04-27T04:19:05.466Z,67.70
2023-04-27T04:22:07.511Z,67.40
2023-04-27T04:25:09.787Z,68.60
2023-04-27T04:28:12.152Z,68.60
2023-04-27T04:31:14.339Z,68.30
2023-04-27T04:34:16.378Z,68.00
2023-04-27T04:37:18.504Z,68.00
2023-04-27T04:40:20.788Z,68.40
2023-04-27T04:43:23.382Z,68.10
2023-04-27T04:46:26.606Z,69.20
2023-04-27T04:49:28.700Z,68.50
2023-04-27T04:52:30.802Z,68.60
2023-04-27T04:55:32.751Z,68.70
2023-04-27T04:58:34.829Z,69.00
2023-04-27T05:01:36.869Z,67.90
2023-04-27T05:04:38.955Z,67.60
2023-04-27T05:07:41.236Z,67.50
2023-04-27T05:10:52.586Z,67.00
2023-04-27T05:13:54.699Z,68.60
2023-04-27T05:16:59.180Z,67.00
2023-04-27T05:20:01.142Z,66.60
2023-04-27T05:23:03.191Z,67.50
2023-04-27T05:26:15.591Z,66.40
2023-04-27T05:29:17.591Z,66.00
2023-04-27T05:32:19.544Z,66.60
2023-04-27T05:35:21.717Z,65.70
2023-04-27T05:38:23.875Z,65.00
2023-04-27T05:41:25.943Z,64.90
2023-04-27T05:44:27.943Z,63.90
2023-04-27T05:47:30.595Z,62.90
2023-04-27T05:50:32.545Z,62.60
2023-04-27T05:53:35.219Z,63.30
2023-04-27T05:56:37.186Z,61.80
2023-04-27T05:59:39.188Z,61.80
2023-04-27T06:02:41.306Z,62.40
2023-04-27T06:05:43.521Z,63.20
2023-04-27T06:08:45.474Z,63.40
2023-04-27T06:11:48.682Z,62.60
2023-04-27T06:14:50.669Z,62.60
2023-04-27T06:17:52.745Z,63.60
2023-04-27T06:20:59.810Z,62.70
2023-04-27T06:24:02.154Z,63.50
2023-04-27T06:27:04.698Z,62.10
2023-04-27T06:30:10.302Z,62.80
2023-04-27T06:33:12.256Z,61.90
2023-04-27T06:36:14.389Z,62.40
2023-04-27T06:39:16.528Z,61.10
2023-04-27T06:42:18.660Z,61.70
2023-04-27T06:45:20.618Z,61.60
2023-04-27T06:48:22.736Z,62.00
2023-04-27T06:51:24.793Z,61.40
2023-04-27T06:54:26.761Z,60.10
2023-04-27T06:57:28.766Z,59.70
2023-04-27T07:00:32.055Z,59.90
2023-04-27T07:03:37.342Z,59.60
2023-04-27T07:06:40.150Z,59.70
2023-04-27T07:09:42.147Z,58.30
2023-04-27T07:12:48.310Z,53.10
2023-04-27T07:15:55.418Z,49.20
2023-04-27T07:18:57.408Z,46.50
2023-04-27T07:21:59.607Z,46.20
2023-04-27T07:25:01.609Z,44.80
2023-04-27T07:28:03.662Z,42.60
2023-04-27T07:31:06.267Z,41.60
2023-04-27T07:34:08.250Z,41.20
2023-04-27T07:37:10.221Z,43.30
2023-04-27T07:40:12.716Z,43.90
2023-04-27T07:43:17.312Z,42.10
2023-04-27T07:46:19.324Z,43.60
2023-04-27T07:49:21.782Z,42.80
2023-04-27T07:52:23.695Z,41.80
2023-04-27T07:55:26.565Z,41.60
2023-04-27T07:58:28.583Z,43.50
2023-04-27T08:01:30.495Z,42.30
2023-04-27T08:04:32.651Z,42.10
2023-04-27T08:07:39.536Z,40.90
2023-04-27T08:10:44.759Z,39.50
2023-04-27T08:13:46.722Z,40.60
2023-04-27T08:16:48.639Z,41.40
2023-04-27T08:19:50.688Z,43.00
2023-04-27T08:22:52.686Z,41.10
2023-04-27T08:25:54.713Z,40.60
2023-04-27T08:28:56.649Z,40.50
2023-04-27T08:31:59.512Z,39.20
2023-04-27T08:35:01.646Z,39.20
2023-04-27T08:38:03.769Z,39.90
2023-04-27T08:41:18.348Z,40.40
2023-04-27T08:44:22.725Z,39.60
2023-04-27T08:47:35.084Z,40.40
2023-04-27T08:50:45.158Z,40.20
2023-04-27T08:53:55.587Z,39.00
2023-04-27T08:56:57.691Z,39.70
2023-04-27T09:00:00.326Z,41.60
2023-04-27T09:03:02.538Z,40.60
2023-04-27T09:06:06.304Z,40.40
2023-04-27T09:09:21.395Z,38.70
2023-04-27T09:12:23.354Z,39.90
2023-04-27T09:15:25.928Z,39.10
2023-04-27T09:18:27.930Z,39.30
2023-04-27T09:21:30.767Z,40.60
2023-04-27T09:24:32.800Z,39.80
2023-04-27T09:27:34.870Z,40.70
2023-04-27T09:30:36.903Z,41.00
2023-04-27T09:33:39.010Z,40.50
2023-04-27T09:36:41.077Z,39.00
2023-04-27T09:39:43.477Z,39.20
2023-04-27T09:42:46.881Z,39.50
2023-04-27T09:45:49.721Z,40.80
2023-04-27T09:48:53.125Z,39.70
2023-04-27T09:51:57.965Z,39.80
2023-04-27T09:55:00.378Z,38.70
2023-04-27T09:58:29.578Z,38.10
2023-04-27T10:01:46.579Z,37.70
2023-04-27T10:05:00.466Z,37.40
2023-04-27T10:08:03.694Z,38.10
2023-04-27T10:11:16.685Z,37.40
2023-04-27T10:14:23.635Z,37.50
2023-04-27T10:17:36.456Z,37.50
2023-04-27T10:20:38.564Z,36.60
2023-04-27T10:23:52.027Z,38.10
2023-04-27T10:27:01.931Z,38.40
2023-04-27T10:30:10.337Z,35.10
2023-04-27T10:33:16.087Z,35.00
2023-04-27T10:36:20.682Z,36.20
2023-04-27T10:39:29.832Z,35.70
2023-04-27T10:42:38.043Z,37.30
2023-04-27T10:45:41.316Z,36.20
2023-04-27T10:48:44.370Z,35.40
2023-04-27T11:03:24.006Z,35.00
2023-04-27T11:06:28.789Z,35.50
2023-04-27T11:09:31.405Z,37.00
2023-04-27T11:12:33.450Z,34.70
2023-04-27T11:15:58.878Z,35.80
2023-04-27T11:19:07.198Z,36.90
2023-04-27T11:22:09.236Z,38.30
2023-04-27T11:25:11.282Z,35.90
2023-04-27T11:28:20.150Z,36.50
2023-04-27T11:31:22.542Z,36.20
2023-04-27T11:34:25.391Z,39.00
2023-04-27T11:37:28.392Z,36.30
2023-04-27T11:40:30.447Z,36.10
2023-04-27T11:43:33.637Z,35.50
2023-04-27T11:46:37.436Z,35.60
2023-04-27T11:49:39.467Z,41.10
2023-04-27T11:52:41.493Z,38.40
2023-04-27T11:55:52.100Z,39.70
2023-04-27T11:58:57.336Z,38.90
2023-04-27T12:01:59.319Z,37.00
2023-04-27T12:05:01.559Z,36.20
2023-04-27T12:08:06.097Z,37.70
2023-04-27T12:11:08.066Z,36.20
2023-04-27T12:14:10.718Z,38.50
2023-04-27T12:17:13.236Z,36.90
2023-04-27T12:20:15.517Z,37.90
2023-04-27T12:23:17.559Z,37.30
2023-04-27T12:26:21.890Z,38.80
2023-04-27T12:29:24.055Z,37.40
2023-04-27T12:32:26.023Z,39.70
2023-04-27T12:35:27.966Z,39.50
2023-04-27T12:38:29.835Z,40.10
2023-04-27T12:41:32.355Z,36.00
2023-04-27T12:44:34.422Z,38.20
2023-04-27T12:50:41.305Z,38.10
2023-04-27T12:53:43.248Z,38.00
2023-04-27T12:56:45.214Z,37.70
2023-04-27T12:59:47.182Z,39.80
2023-04-27T13:02:49.439Z,39.00
2023-04-27T13:05:51.483Z,36.90
2023-04-27T13:08:54.765Z,39.40
2023-04-27T13:11:57.838Z,38.10
2023-04-27T13:15:01.319Z,36.80
2023-04-27T13:18:03.388Z,36.60
2023-04-27T13:21:05.646Z,38.10
2023-04-27T13:24:07.789Z,37.30
2023-04-27T13:27:09.955Z,37.90
2023-04-27T13:30:12.762Z,37.40
2023-04-27T13:33:23.153Z,38.40
2023-04-27T13:36:25.847Z,37.20
2023-04-27T13:39:30.406Z,37.40
2023-04-27T13:42:32.479Z,40.50
2023-04-27T13:45:34.522Z,38.90
2023-04-27T13:48:36.453Z,36.50
2023-04-27T13:51:38.567Z,36.90
2023-04-27T13:54:40.712Z,39.20
2023-04-27T13:57:43.334Z,37.20
2023-04-27T14:00:45.517Z,37.20
2023-04-27T14:03:50.016Z,37.90
2023-04-27T14:06:52.286Z,36.30
2023-04-27T14:09:54.199Z,37.00
2023-04-27T14:12:57.356Z,38.60
2023-04-27T14:16:01.524Z,37.50
2023-04-27T14:19:03.511Z,36.80
2023-04-27T14:22:05.498Z,37.10
2023-04-27T14:25:08.135Z,36.70
2023-04-27T14:28:10.075Z,36.60
2023-04-27T14:31:12.160Z,37.40
2023-04-27T14:34:14.473Z,38.10
2023-04-27T14:37:16.428Z,38.20
2023-04-27T14:40:19.285Z,37.50
2023-04-27T14:43:21.804Z,37.30
2023-04-27T14:46:24.553Z,36.40
2023-04-27T14:49:26.652Z,39.60
2023-04-27T14:52:29.750Z,36.10
2023-04-27T14:55:31.713Z,39.10
2023-04-27T14:58:33.992Z,39.40
2023-04-27T15:01:38.344Z,37.00
2023-04-27T15:04:40.408Z,36.80
2023-04-27T15:07:44.910Z,37.40
2023-04-27T15:10:46.965Z,36.60
2023-04-27T15:13:49.205Z,39.30
2023-04-27T15:16:51.726Z,39.50
2023-04-27T15:19:55.082Z,37.10
2023-04-27T15:22:57.158Z,38.60
2023-04-27T15:25:59.066Z,37.90
2023-04-27T15:29:00.967Z,39.80
2023-04-27T15:32:02.979Z,39.30
2023-04-27T15:35:05.906Z,38.40
2023-04-27T15:38:10.424Z,37.70
2023-04-27T15:41:15.741Z,38.60
2023-04-27T15:44:17.770Z,39.30
2023-04-27T15:47:19.630Z,37.70
2023-04-27T15:50:22.432Z,39.70
2023-04-27T15:53:24.467Z,39.80
2023-04-27T15:56:27.288Z,39.40
2023-04-27T15:59:33.072Z,38.80
2023-04-27T16:02:35.138Z,38.20
2023-04-27T16:05:37.297Z,37.70
2023-04-27T16:08:39.242Z,38.50
2023-04-27T16:11:41.514Z,38.70
2023-04-27T16:14:43.359Z,38.90
2023-04-27T16:17:45.418Z,38.40
2023-04-27T16:20:47.371Z,38.90
2023-04-27T16:23:51.079Z,39.40
2023-04-27T16:26:53.231Z,40.60
2023-04-27T16:29:55.997Z,39.60
2023-04-27T16:32:58.016Z,40.20
2023-04-27T16:36:00.041Z,39.40
2023-04-27T16:39:05.261Z,40.80
2023-04-27T16:42:07.371Z,42.30
2023-04-27T16:45:10.952Z,42.60
2023-04-27T16:48:13.183Z,42.70
2023-04-27T16:51:15.258Z,42.50
2023-04-27T16:54:17.559Z,42.90
2023-04-27T16:57:22.058Z,44.50
2023-04-27T17:00:24.198Z,42.60
2023-04-27T17:03:26.329Z,43.00
2023-04-27T17:06:28.512Z,42.60
2023-04-27T17:09:30.461Z,43.30
2023-04-27T17:12:32.711Z,44.30
2023-04-27T17:15:34.920Z,44.70
2023-04-27T17:18:37.138Z,44.60
2023-04-27T17:21:39.184Z,44.70
2023-04-27T17:24:41.697Z,43.40
2023-04-27T17:27:43.689Z,44.10
2023-04-27T17:30:45.758Z,44.40
2023-04-27T17:33:47.656Z,44.00
2023-04-27T17:38:15.739Z,44.50
2023-04-27T17:41:17.835Z,44.70
2023-04-27T17:44:19.838Z,46.50
2023-04-27T17:47:22.251Z,46.90
2023-04-27T17:50:25.737Z,48.10
2023-04-27T17:53:27.885Z,48.40
2023-04-27T17:56:29.733Z,48.50
2023-04-27T17:59:33.909Z,50.40
2023-04-27T18:02:36.300Z,49.50
2023-04-27T18:05:38.461Z,50.00
2023-04-27T18:08:40.469Z,51.10
2023-04-27T18:11:42.528Z,52.20
2023-04-27T18:14:44.915Z,53.20
2023-04-27T18:17:47.278Z,54.40
2023-04-27T18:20:49.319Z,50.80
2023-04-27T18:23:51.263Z,51.20
2023-04-27T18:26:53.315Z,52.30
2023-04-27T18:29:55.353Z,52.30
2023-04-27T18:32:57.416Z,52.40
2023-04-27T18:35:59.500Z,52.80
2023-04-27T18:39:01.466Z,53.00
2023-04-27T18:42:03.723Z,53.30
2023-04-27T18:45:06.380Z,53.00
2023-04-27T18:48:08.388Z,53.60
2023-04-27T18:51:10.393Z,52.90
2023-04-27T18:54:12.808Z,52.90
2023-04-27T18:57:15.302Z,53.30
2023-04-27T19:00:17.373Z,55.00
2023-04-27T19:03:19.829Z,56.30
2023-04-27T19:06:22.291Z,57.30
2023-04-27T19:09:24.281Z,58.10
2023-04-27T19:12:26.362Z,58.60
2023-04-27T19:15:28.476Z,57.90
2023-04-27T19:18:30.381Z,58.20
2023-04-27T19:21:32.346Z,58.70
2023-04-27T19:24:34.934Z,58.40
2023-04-27T19:27:36.977Z,58.60
2023-04-27T19:30:39.282Z,58.70
2023-04-27T19:33:46.747Z,59.20
2023-04-27T19:36:49.368Z,60.00
2023-04-27T19:39:51.350Z,60.40
2023-04-27T19:42:53.435Z,59.40
2023-04-27T19:45:55.585Z,59.20
2023-04-27T19:48:57.753Z,59.80
2023-04-27T19:52:01.138Z,58.00
2023-04-27T19:55:03.899Z,57.80
2023-04-27T19:58:05.963Z,58.20
2023-04-27T20:01:08.038Z,60.20
2023-04-27T20:04:10.456Z,59.00
2023-04-27T20:07:12.607Z,59.50
2023-04-27T20:10:14.681Z,59.60
2023-04-27T20:13:16.785Z,60.80
2023-04-27T20:16:21.221Z,60.70
2023-04-27T20:19:26.416Z,61.00
2023-04-27T20:22:28.381Z,61.00
2023-04-27T20:25:30.463Z,60.70
2023-04-27T20:28:32.498Z,60.80
2023-04-27T20:31:34.584Z,60.80
2023-04-27T20:34:36.584Z,60.80
2023-04-27T20:37:39.437Z,60.70
2023-04-27T20:40:43.559Z,60.60
2023-04-27T20:43:45.646Z,60.70
2023-04-27T20:46:47.570Z,60.80
2023-04-27T20:49:49.799Z,61.20
2023-04-27T20:52:51.917Z,61.60
2023-04-27T20:55:54.081Z,61.50
2023-04-27T20:58:56.289Z,61.70
2023-04-27T21:01:58.513Z,62.30
2023-04-27T21:05:00.659Z,62.80
2023-04-27T21:08:02.948Z,62.80
2023-04-27T21:11:05.081Z,62.70
2023-04-27T21:14:07.075Z,64.50
2023-04-27T21:17:09.238Z,64.70
2023-04-27T21:20:11.378Z,62.70
2023-04-27T21:23:13.430Z,63.10
2023-04-27T21:26:15.462Z,63.40
2023-04-27T21:29:17.587Z,64.00
2023-04-27T21:32:19.566Z,64.20
2023-04-27T21:35:21.589Z,64.60
2023-04-27T21:38:26.095Z,65.60
2023-04-27T21:41:28.393Z,65.20
2023-04-27T21:44:30.442Z,64.30
2023-04-27T21:47:32.458Z,64.20
2023-04-27T21:50:34.483Z,65.50
2023-04-27T21:53:36.409Z,65.00
2023-04-27T21:56:38.406Z,65.90
2023-04-27T21:59:40.316Z,64.50
2023-04-27T22:02:44.737Z,65.40
2023-04-27T22:05:46.871Z,65.70
2023-04-27T22:08:48.967Z,66.00
2023-04-27T22:11:51.036Z,64.70
2023-04-27T22:14:53.445Z,63.80
2023-04-27T22:17:55.403Z,67.70
2023-04-27T22:20:57.523Z,64.70
2023-04-27T22:23:59.511Z,66.20
2023-04-27T22:27:01.527Z,64.70
2023-04-27T22:30:04.420Z,64.10
2023-04-27T22:33:06.679Z,63.70
2023-04-27T22:36:08.918Z,65.50
2023-04-27T22:39:11.022Z,64.40
2023-04-27T22:42:13.392Z,64.70
2023-04-27T22:45:15.652Z,64.50
2023-04-27T22:48:17.718Z,66.00
2023-04-27T22:51:20.002Z,67.50
2023-04-27T22:54:25.108Z,65.40
2023-04-27T22:57:27.042Z,64.70
2023-04-27T23:00:29.098Z,63.50
2023-04-27T23:03:31.464Z,63.80
2023-04-27T23:06:33.741Z,63.80
2023-04-27T23:09:35.745Z,66.70
2023-04-27T23:12:37.762Z,64.50
2023-04-27T23:15:39.726Z,66.70
2023-04-27T23:18:41.952Z,66.20
2023-04-27T23:21:43.864Z,66.20
2023-04-27T23:24:45.821Z,65.00
2023-04-27T23:27:49.371Z,64.20
2023-04-27T23:30:56.272Z,65.70
2023-04-27T23:33:58.284Z,67.50
2023-04-27T23:37:00.315Z,62.40
2023-04-27T23:40:02.353Z,61.60
2023-04-27T23:43:04.329Z,62.30
2023-04-27T23:46:06.374Z,62.70
2023-04-27T23:49:08.383Z,65.00
2023-04-27T23:52:12.910Z,67.80
2023-04-27T23:55:15.194Z,66.90
2023-04-27T23:58:17.288Z,66.10
